Terminal Aerodrome Forecast
Issued by NWS Central Illinois

Home | Current Version | Previous Version | Text Only | Print | Product List | Glossary On
Versions: 1 2 3 4 5 6 7 8 9 10 11 12 13 14 15 16 17 18 19 20
000
FTUS43 KILX 311734
TAFPIA
TAF
KPIA 311734Z 3118/0118 18006KT P6SM SCT030
     FM010100 19004KT P6SM SKC
      TEMPO 0108/0112 1SM BR
     FM011200 21006KT P6SM BKN250=

USA.gov is the U.S. government's official web portal to all federal, state and local government web resources and services.